sensor_id;sensor_type;location;lat;lon;timestamp;P1;durP1;ratioP1;P2;durP2;ratioP2
24277;SDS011;12394;42.692;23.314;2023-06-05T00:01:23;33.00;;;24.93;;
24277;SDS011;12394;42.692;23.314;2023-06-05T00:03:48;30.47;;;24.67;;
24277;SDS011;12394;42.692;23.314;2023-06-05T00:06:13;28.10;;;23.17;;
24277;SDS011;12394;42.692;23.314;2023-06-05T00:08:39;26.83;;;22.23;;
24277;SDS011;12394;42.692;23.314;2023-06-05T00:11:04;26.93;;;18.87;;
24277;SDS011;12394;42.692;23.314;2023-06-05T00:13:30;22.87;;;17.40;;
24277;SDS011;12394;42.692;23.314;2023-06-05T00:15:55;19.90;;;17.43;;
24277;SDS011;12394;42.692;23.314;2023-06-05T00:18:21;21.23;;;15.77;;
24277;SDS011;12394;42.692;23.314;2023-06-05T00:20:47;20.20;;;15.30;;
24277;SDS011;12394;42.692;23.314;2023-06-05T00:23:12;17.00;;;14.67;;
24277;SDS011;12394;42.692;23.314;2023-06-05T00:25:38;21.83;;;15.77;;
24277;SDS011;12394;42.692;23.314;2023-06-05T00:28:04;18.97;;;14.83;;
24277;SDS011;12394;42.692;23.314;2023-06-05T00:30:29;18.83;;;14.70;;
24277;SDS011;12394;42.692;23.314;2023-06-05T00:32:55;16.00;;;14.30;;
24277;SDS011;12394;42.692;23.314;2023-06-05T00:35:21;15.67;;;14.07;;
24277;SDS011;12394;42.692;23.314;2023-06-05T00:37:46;19.47;;;13.97;;
24277;SDS011;12394;42.692;23.314;2023-06-05T00:40:12;19.33;;;14.40;;
24277;SDS011;12394;42.692;23.314;2023-06-05T00:42:38;17.63;;;14.50;;
24277;SDS011;12394;42.692;23.314;2023-06-05T00:45:03;18.97;;;14.33;;
24277;SDS011;12394;42.692;23.314;2023-06-05T00:47:29;22.07;;;15.33;;
24277;SDS011;12394;42.692;23.314;2023-06-05T00:49:54;21.97;;;15.23;;
24277;SDS011;12394;42.692;23.314;2023-06-05T00:52:20;16.40;;;14.23;;
24277;SDS011;12394;42.692;23.314;2023-06-05T00:54:46;19.80;;;13.20;;
24277;SDS011;12394;42.692;23.314;2023-06-05T00:57:11;17.50;;;13.50;;
24277;SDS011;12394;42.692;23.314;2023-06-05T00:59:37;20.10;;;12.00;;
24277;SDS011;12394;42.692;23.314;2023-06-05T01:02:03;15.83;;;11.17;;
24277;SDS011;12394;42.692;23.314;2023-06-05T01:04:29;13.47;;;11.47;;
24277;SDS011;12394;42.692;23.314;2023-06-05T01:06:55;16.50;;;11.70;;
24277;SDS011;12394;42.692;23.314;2023-06-05T01:09:23;15.60;;;11.83;;
24277;SDS011;12394;42.692;23.314;2023-06-05T01:14:37;14.47;;;10.80;;
24277;SDS011;12394;42.692;23.314;2023-06-05T01:17:05;15.07;;;11.20;;
24277;SDS011;12394;42.692;23.314;2023-06-05T01:19:33;16.70;;;12.53;;
24277;SDS011;12394;42.692;23.314;2023-06-05T01:22:00;16.57;;;11.73;;
24277;SDS011;12394;42.692;23.314;2023-06-05T01:24:27;14.17;;;11.47;;
24277;SDS011;12394;42.692;23.314;2023-06-05T01:29:35;16.23;;;11.73;;
24277;SDS011;12394;42.692;23.314;2023-06-05T01:32:05;15.53;;;12.27;;
24277;SDS011;12394;42.692;23.314;2023-06-05T01:34:37;12.87;;;11.50;;
24277;SDS011;12394;42.692;23.314;2023-06-05T01:37:09;14.60;;;11.93;;
24277;SDS011;12394;42.692;23.314;2023-06-05T01:39:39;18.00;;;12.30;;
24277;SDS011;12394;42.692;23.314;2023-06-05T01:42:06;14.17;;;11.30;;
24277;SDS011;12394;42.692;23.314;2023-06-05T01:44:34;14.50;;;11.97;;
24277;SDS011;12394;42.692;23.314;2023-06-05T01:47:00;18.10;;;12.30;;
24277;SDS011;12394;42.692;23.314;2023-06-05T01:49:26;16.40;;;12.87;;
24277;SDS011;12394;42.692;23.314;2023-06-05T01:51:52;14.10;;;11.70;;
24277;SDS011;12394;42.692;23.314;2023-06-05T01:54:19;19.00;;;13.07;;
24277;SDS011;12394;42.692;23.314;2023-06-05T01:56:48;16.10;;;12.03;;
24277;SDS011;12394;42.692;23.314;2023-06-05T01:59:14;21.20;;;12.20;;
24277;SDS011;12394;42.692;23.314;2023-06-05T02:01:41;14.77;;;13.20;;
24277;SDS011;12394;42.692;23.314;2023-06-05T02:04:09;17.63;;;13.30;;
24277;SDS011;12394;42.692;23.314;2023-06-05T02:06:35;15.53;;;12.50;;
24277;SDS011;12394;42.692;23.314;2023-06-05T02:09:06;17.03;;;12.60;;
24277;SDS011;12394;42.692;23.314;2023-06-05T02:11:34;16.23;;;12.67;;
24277;SDS011;12394;42.692;23.314;2023-06-05T02:14:01;15.03;;;12.23;;
24277;SDS011;12394;42.692;23.314;2023-06-05T02:16:26;17.00;;;12.50;;
24277;SDS011;12394;42.692;23.314;2023-06-05T02:18:52;14.83;;;12.77;;
24277;SDS011;12394;42.692;23.314;2023-06-05T02:21:17;17.33;;;13.80;;
24277;SDS011;12394;42.692;23.314;2023-06-05T02:23:42;17.10;;;13.37;;
24277;SDS011;12394;42.692;23.314;2023-06-05T02:26:08;27.80;;;13.70;;
24277;SDS011;12394;42.692;23.314;2023-06-05T02:28:34;21.03;;;13.07;;
24277;SDS011;12394;42.692;23.314;2023-06-05T02:31:00;17.00;;;12.70;;
24277;SDS011;12394;42.692;23.314;2023-06-05T02:33:26;23.43;;;13.67;;
24277;SDS011;12394;42.692;23.314;2023-06-05T02:35:53;20.57;;;13.20;;
24277;SDS011;12394;42.692;23.314;2023-06-05T02:38:18;18.63;;;13.40;;
24277;SDS011;12394;42.692;23.314;2023-06-05T02:40:44;35.07;;;15.47;;
24277;SDS011;12394;42.692;23.314;2023-06-05T02:43:09;22.43;;;12.60;;
24277;SDS011;12394;42.692;23.314;2023-06-05T02:45:36;16.20;;;13.33;;
24277;SDS011;12394;42.692;23.314;2023-06-05T02:48:02;14.97;;;12.30;;
24277;SDS011;12394;42.692;23.314;2023-06-05T02:50:27;16.67;;;12.63;;
24277;SDS011;12394;42.692;23.314;2023-06-05T02:52:53;20.80;;;13.03;;
24277;SDS011;12394;42.692;23.314;2023-06-05T02:55:18;16.03;;;12.57;;
24277;SDS011;12394;42.692;23.314;2023-06-05T02:57:44;19.03;;;13.43;;
24277;SDS011;12394;42.692;23.314;2023-06-05T03:02:50;20.97;;;13.53;;
24277;SDS011;12394;42.692;23.314;2023-06-05T03:05:15;17.57;;;12.73;;
24277;SDS011;12394;42.692;23.314;2023-06-05T03:07:43;17.50;;;13.53;;
24277;SDS011;12394;42.692;23.314;2023-06-05T03:10:08;22.20;;;13.80;;
24277;SDS011;12394;42.692;23.314;2023-06-05T03:12:34;20.43;;;13.37;;
24277;SDS011;12394;42.692;23.314;2023-06-05T03:14:59;22.03;;;16.30;;
24277;SDS011;12394;42.692;23.314;2023-06-05T03:17:25;19.27;;;14.90;;
24277;SDS011;12394;42.692;23.314;2023-06-05T03:19:53;20.07;;;13.77;;
24277;SDS011;12394;42.692;23.314;2023-06-05T03:22:18;21.23;;;14.17;;
24277;SDS011;12394;42.692;23.314;2023-06-05T03:24:45;20.83;;;15.87;;
24277;SDS011;12394;42.692;23.314;2023-06-05T03:27:10;22.33;;;15.13;;
24277;SDS011;12394;42.692;23.314;2023-06-05T03:29:36;18.03;;;14.77;;
24277;SDS011;12394;42.692;23.314;2023-06-05T03:32:01;23.60;;;15.47;;
24277;SDS011;12394;42.692;23.314;2023-06-05T03:34:26;21.47;;;15.23;;
24277;SDS011;12394;42.692;23.314;2023-06-05T03:36:52;28.63;;;17.07;;
24277;SDS011;12394;42.692;23.314;2023-06-05T03:39:17;19.53;;;16.93;;
24277;SDS011;12394;42.692;23.314;2023-06-05T03:41:43;19.97;;;17.57;;
24277;SDS011;12394;42.692;23.314;2023-06-05T03:44:09;23.97;;;16.33;;
24277;SDS011;12394;42.692;23.314;2023-06-05T03:46:34;25.27;;;17.63;;
24277;SDS011;12394;42.692;23.314;2023-06-05T03:49:01;22.07;;;18.13;;
24277;SDS011;12394;42.692;23.314;2023-06-05T03:51:33;24.27;;;18.73;;
24277;SDS011;12394;42.692;23.314;2023-06-05T03:53:59;22.57;;;18.60;;
24277;SDS011;12394;42.692;23.314;2023-06-05T03:56:25;28.87;;;19.37;;
24277;SDS011;12394;42.692;23.314;2023-06-05T03:58:59;25.20;;;19.77;;
24277;SDS011;12394;42.692;23.314;2023-06-05T04:01:34;30.60;;;19.30;;
24277;SDS011;12394;42.692;23.314;2023-06-05T04:04:04;28.50;;;19.30;;
24277;SDS011;12394;42.692;23.314;2023-06-05T04:06:30;24.00;;;19.10;;
24277;SDS011;12394;42.692;23.314;2023-06-05T04:08:57;22.87;;;18.87;;
24277;SDS011;12394;42.692;23.314;2023-06-05T04:11:23;26.97;;;18.27;;
24277;SDS011;12394;42.692;23.314;2023-06-05T04:13:51;25.37;;;18.70;;
24277;SDS011;12394;42.692;23.314;2023-06-05T04:16:20;30.77;;;19.20;;
24277;SDS011;12394;42.692;23.314;2023-06-05T04:18:45;27.67;;;19.60;;
24277;SDS011;12394;42.692;23.314;2023-06-05T04:21:11;26.37;;;18.60;;
24277;SDS011;12394;42.692;23.314;2023-06-05T04:23:36;32.57;;;18.90;;
24277;SDS011;12394;42.692;23.314;2023-06-05T04:26:01;27.20;;;19.47;;
24277;SDS011;12394;42.692;23.314;2023-06-05T04:28:28;27.67;;;19.90;;
24277;SDS011;12394;42.692;23.314;2023-06-05T04:30:54;27.80;;;19.67;;
24277;SDS011;12394;42.692;23.314;2023-06-05T04:33:20;29.67;;;20.47;;
24277;SDS011;12394;42.692;23.314;2023-06-05T04:35:46;43.80;;;21.10;;
24277;SDS011;12394;42.692;23.314;2023-06-05T04:38:12;26.83;;;19.83;;
24277;SDS011;12394;42.692;23.314;2023-06-05T04:40:37;37.07;;;21.43;;
24277;SDS011;12394;42.692;23.314;2023-06-05T04:43:03;29.80;;;20.83;;
24277;SDS011;12394;42.692;23.314;2023-06-05T04:45:28;30.23;;;20.90;;
24277;SDS011;12394;42.692;23.314;2023-06-05T04:47:53;28.10;;;21.07;;
24277;SDS011;12394;42.692;23.314;2023-06-05T04:50:23;24.83;;;19.43;;
24277;SDS011;12394;42.692;23.314;2023-06-05T04:52:50;22.30;;;18.83;;
24277;SDS011;12394;42.692;23.314;2023-06-05T04:55:15;25.10;;;17.47;;
24277;SDS011;12394;42.692;23.314;2023-06-05T04:57:41;22.30;;;17.80;;
24277;SDS011;12394;42.692;23.314;2023-06-05T05:00:06;26.03;;;17.73;;
24277;SDS011;12394;42.692;23.314;2023-06-05T05:02:32;24.53;;;17.97;;
24277;SDS011;12394;42.692;23.314;2023-06-05T05:04:58;23.00;;;17.20;;
24277;SDS011;12394;42.692;23.314;2023-06-05T05:07:23;18.50;;;16.50;;
24277;SDS011;12394;42.692;23.314;2023-06-05T05:09:51;24.13;;;16.87;;
24277;SDS011;12394;42.692;23.314;2023-06-05T05:12:16;28.63;;;17.70;;
24277;SDS011;12394;42.692;23.314;2023-06-05T05:14:42;22.67;;;16.03;;
24277;SDS011;12394;42.692;23.314;2023-06-05T05:17:09;18.63;;;16.07;;
24277;SDS011;12394;42.692;23.314;2023-06-05T05:19:35;20.13;;;15.80;;
24277;SDS011;12394;42.692;23.314;2023-06-05T05:22:00;19.43;;;15.90;;
24277;SDS011;12394;42.692;23.314;2023-06-05T05:24:26;19.00;;;15.00;;
24277;SDS011;12394;42.692;23.314;2023-06-05T05:26:51;20.97;;;15.30;;
24277;SDS011;12394;42.692;23.314;2023-06-05T05:29:17;17.97;;;14.70;;
24277;SDS011;12394;42.692;23.314;2023-06-05T05:31:44;17.70;;;14.70;;
24277;SDS011;12394;42.692;23.314;2023-06-05T05:34:10;18.13;;;15.10;;
24277;SDS011;12394;42.692;23.314;2023-06-05T05:36:35;21.40;;;15.23;;
24277;SDS011;12394;42.692;23.314;2023-06-05T05:39:04;21.27;;;14.73;;
24277;SDS011;12394;42.692;23.314;2023-06-05T05:41:30;17.40;;;14.70;;
24277;SDS011;12394;42.692;23.314;2023-06-05T05:43:55;22.90;;;15.70;;
24277;SDS011;12394;42.692;23.314;2023-06-05T05:46:21;19.13;;;14.20;;
24277;SDS011;12394;42.692;23.314;2023-06-05T05:48:46;18.97;;;15.93;;
24277;SDS011;12394;42.692;23.314;2023-06-05T05:51:12;21.87;;;16.40;;
24277;SDS011;12394;42.692;23.314;2023-06-05T05:53:37;24.93;;;15.50;;
24277;SDS011;12394;42.692;23.314;2023-06-05T05:56:03;22.77;;;15.83;;
24277;SDS011;12394;42.692;23.314;2023-06-05T05:58:29;19.43;;;16.03;;
24277;SDS011;12394;42.692;23.314;2023-06-05T06:00:54;19.07;;;14.53;;
24277;SDS011;12394;42.692;23.314;2023-06-05T06:03:20;23.30;;;15.07;;
24277;SDS011;12394;42.692;23.314;2023-06-05T06:05:48;15.73;;;13.67;;
24277;SDS011;12394;42.692;23.314;2023-06-05T06:08:13;16.13;;;14.10;;
24277;SDS011;12394;42.692;23.314;2023-06-05T06:10:40;21.53;;;14.03;;
24277;SDS011;12394;42.692;23.314;2023-06-05T06:13:06;21.53;;;13.90;;
24277;SDS011;12394;42.692;23.314;2023-06-05T06:15:32;17.37;;;14.07;;
24277;SDS011;12394;42.692;23.314;2023-06-05T06:17:58;16.90;;;13.50;;
24277;SDS011;12394;42.692;23.314;2023-06-05T06:20:28;16.90;;;12.83;;
24277;SDS011;12394;42.692;23.314;2023-06-05T06:22:54;14.87;;;12.73;;
24277;SDS011;12394;42.692;23.314;2023-06-05T06:25:21;16.90;;;13.20;;
24277;SDS011;12394;42.692;23.314;2023-06-05T06:27:51;15.97;;;13.40;;
24277;SDS011;12394;42.692;23.314;2023-06-05T06:30:18;15.17;;;12.63;;
24277;SDS011;12394;42.692;23.314;2023-06-05T06:32:46;16.87;;;12.70;;
24277;SDS011;12394;42.692;23.314;2023-06-05T06:35:11;13.97;;;12.43;;
24277;SDS011;12394;42.692;23.314;2023-06-05T06:37:59;16.47;;;12.63;;
24277;SDS011;12394;42.692;23.314;2023-06-05T06:40:25;15.50;;;12.70;;
24277;SDS011;12394;42.692;23.314;2023-06-05T06:42:52;16.40;;;12.83;;
24277;SDS011;12394;42.692;23.314;2023-06-05T06:45:18;17.37;;;12.30;;
24277;SDS011;12394;42.692;23.314;2023-06-05T06:47:43;16.23;;;13.40;;
24277;SDS011;12394;42.692;23.314;2023-06-05T06:50:09;15.90;;;13.70;;
24277;SDS011;12394;42.692;23.314;2023-06-05T06:52:35;20.43;;;14.77;;
24277;SDS011;12394;42.692;23.314;2023-06-05T06:55:20;24.30;;;15.63;;
24277;SDS011;12394;42.692;23.314;2023-06-05T06:57:46;21.10;;;14.30;;
24277;SDS011;12394;42.692;23.314;2023-06-05T07:00:12;18.17;;;14.07;;
24277;SDS011;12394;42.692;23.314;2023-06-05T07:02:39;19.83;;;13.67;;
24277;SDS011;12394;42.692;23.314;2023-06-05T07:05:06;15.37;;;13.70;;
24277;SDS011;12394;42.692;23.314;2023-06-05T07:07:32;17.97;;;14.33;;
24277;SDS011;12394;42.692;23.314;2023-06-05T07:09:58;17.30;;;15.33;;
24277;SDS011;12394;42.692;23.314;2023-06-05T07:12:23;17.53;;;14.80;;
24277;SDS011;12394;42.692;23.314;2023-06-05T07:14:49;22.97;;;16.57;;
24277;SDS011;12394;42.692;23.314;2023-06-05T07:17:17;18.37;;;16.37;;
24277;SDS011;12394;42.692;23.314;2023-06-05T07:19:43;20.87;;;16.27;;
24277;SDS011;12394;42.692;23.314;2023-06-05T07:22:08;20.03;;;16.20;;
24277;SDS011;12394;42.692;23.314;2023-06-05T07:24:34;19.00;;;15.43;;
24277;SDS011;12394;42.692;23.314;2023-06-05T07:27:00;15.57;;;13.90;;
24277;SDS011;12394;42.692;23.314;2023-06-05T07:29:27;21.97;;;16.07;;
24277;SDS011;12394;42.692;23.314;2023-06-05T07:31:54;20.20;;;16.43;;
24277;SDS011;12394;42.692;23.314;2023-06-05T07:34:21;18.03;;;15.93;;
24277;SDS011;12394;42.692;23.314;2023-06-05T07:36:47;20.33;;;15.77;;
24277;SDS011;12394;42.692;23.314;2023-06-05T07:39:15;22.53;;;15.40;;
24277;SDS011;12394;42.692;23.314;2023-06-05T07:41:42;23.50;;;15.40;;
24277;SDS011;12394;42.692;23.314;2023-06-05T07:44:12;19.97;;;16.17;;
24277;SDS011;12394;42.692;23.314;2023-06-05T07:46:41;18.77;;;15.13;;
24277;SDS011;12394;42.692;23.314;2023-06-05T07:49:07;17.27;;;14.60;;
24277;SDS011;12394;42.692;23.314;2023-06-05T07:51:34;18.13;;;14.30;;
24277;SDS011;12394;42.692;23.314;2023-06-05T07:54:20;20.47;;;15.53;;
24277;SDS011;12394;42.692;23.314;2023-06-05T07:56:46;15.90;;;14.10;;
24277;SDS011;12394;42.692;23.314;2023-06-05T07:59:16;19.07;;;14.73;;
24277;SDS011;12394;42.692;23.314;2023-06-05T08:01:48;16.00;;;14.20;;
24277;SDS011;12394;42.692;23.314;2023-06-05T08:04:14;21.07;;;14.33;;
24277;SDS011;12394;42.692;23.314;2023-06-05T08:06:41;24.40;;;18.03;;
24277;SDS011;12394;42.692;23.314;2023-06-05T08:09:07;21.70;;;15.13;;
24277;SDS011;12394;42.692;23.314;2023-06-05T08:11:37;19.80;;;14.83;;
24277;SDS011;12394;42.692;23.314;2023-06-05T08:14:04;21.67;;;14.33;;
24277;SDS011;12394;42.692;23.314;2023-06-05T08:16:32;17.53;;;13.93;;
24277;SDS011;12394;42.692;23.314;2023-06-05T08:19:23;16.63;;;13.47;;
24277;SDS011;12394;42.692;23.314;2023-06-05T08:21:51;17.77;;;13.50;;
24277;SDS011;12394;42.692;23.314;2023-06-05T08:24:19;17.10;;;13.97;;
24277;SDS011;12394;42.692;23.314;2023-06-05T08:26:48;20.70;;;13.77;;
24277;SDS011;12394;42.692;23.314;2023-06-05T08:29:34;17.07;;;13.87;;
24277;SDS011;12394;42.692;23.314;2023-06-05T08:32:04;16.50;;;13.90;;
24277;SDS011;12394;42.692;23.314;2023-06-05T08:34:31;15.37;;;13.77;;
24277;SDS011;12394;42.692;23.314;2023-06-05T08:36:57;15.10;;;13.50;;
24277;SDS011;12394;42.692;23.314;2023-06-05T08:39:24;16.93;;;13.17;;
24277;SDS011;12394;42.692;23.314;2023-06-05T08:41:54;17.87;;;13.43;;
24277;SDS011;12394;42.692;23.314;2023-06-05T08:44:28;18.67;;;14.87;;
24277;SDS011;12394;42.692;23.314;2023-06-05T08:46:59;18.30;;;13.93;;
24277;SDS011;12394;42.692;23.314;2023-06-05T08:49:28;15.93;;;13.13;;
24277;SDS011;12394;42.692;23.314;2023-06-05T08:52:01;21.07;;;14.30;;
24277;SDS011;12394;42.692;23.314;2023-06-05T08:54:30;18.90;;;13.63;;
24277;SDS011;12394;42.692;23.314;2023-06-05T08:57:00;14.17;;;12.70;;
24277;SDS011;12394;42.692;23.314;2023-06-05T08:59:29;17.40;;;13.37;;
24277;SDS011;12394;42.692;23.314;2023-06-05T09:01:56;17.73;;;13.63;;
24277;SDS011;12394;42.692;23.314;2023-06-05T09:04:23;18.97;;;13.97;;
24277;SDS011;12394;42.692;23.314;2023-06-05T09:06:55;16.67;;;13.00;;
24277;SDS011;12394;42.692;23.314;2023-06-05T09:09:21;19.67;;;13.10;;
24277;SDS011;12394;42.692;23.314;2023-06-05T09:11:47;16.20;;;12.23;;
24277;SDS011;12394;42.692;23.314;2023-06-05T09:14:12;17.97;;;13.13;;
24277;SDS011;12394;42.692;23.314;2023-06-05T09:16:38;17.93;;;12.90;;
24277;SDS011;12394;42.692;23.314;2023-06-05T09:19:05;17.13;;;13.57;;
24277;SDS011;12394;42.692;23.314;2023-06-05T09:21:31;14.50;;;11.83;;
24277;SDS011;12394;42.692;23.314;2023-06-05T09:29:28;14.63;;;11.40;;
24277;SDS011;12394;42.692;23.314;2023-06-05T09:31:58;13.63;;;11.30;;
24277;SDS011;12394;42.692;23.314;2023-06-05T09:34:27;16.57;;;12.40;;
24277;SDS011;12394;42.692;23.314;2023-06-05T09:36:58;15.60;;;12.23;;
24277;SDS011;12394;42.692;23.314;2023-06-05T09:39:27;13.87;;;11.10;;
24277;SDS011;12394;42.692;23.314;2023-06-05T09:41:54;16.43;;;11.60;;
24277;SDS011;12394;42.692;23.314;2023-06-05T09:44:41;18.83;;;12.07;;
24277;SDS011;12394;42.692;23.314;2023-06-05T09:47:24;15.23;;;11.77;;
24277;SDS011;12394;42.692;23.314;2023-06-05T09:49:50;18.27;;;11.57;;
24277;SDS011;12394;42.692;23.314;2023-06-05T09:52:15;17.33;;;10.90;;
24277;SDS011;12394;42.692;23.314;2023-06-05T09:54:42;18.73;;;10.53;;
24277;SDS011;12394;42.692;23.314;2023-06-05T09:57:10;11.43;;;9.63;;
24277;SDS011;12394;42.692;23.314;2023-06-05T09:59:41;13.60;;;9.27;;
24277;SDS011;12394;42.692;23.314;2023-06-05T10:02:16;18.40;;;10.10;;
24277;SDS011;12394;42.692;23.314;2023-06-05T10:04:57;12.50;;;9.37;;
24277;SDS011;12394;42.692;23.314;2023-06-05T10:07:23;15.33;;;10.50;;
24277;SDS011;12394;42.692;23.314;2023-06-05T10:09:49;13.00;;;10.30;;
24277;SDS011;12394;42.692;23.314;2023-06-05T10:12:15;13.43;;;9.90;;
24277;SDS011;12394;42.692;23.314;2023-06-05T10:14:42;12.67;;;9.40;;
24277;SDS011;12394;42.692;23.314;2023-06-05T10:17:08;14.00;;;10.23;;
24277;SDS011;12394;42.692;23.314;2023-06-05T10:19:36;16.40;;;9.87;;
24277;SDS011;12394;42.692;23.314;2023-06-05T10:22:07;12.03;;;9.63;;
24277;SDS011;12394;42.692;23.314;2023-06-05T10:24:36;16.17;;;10.43;;
24277;SDS011;12394;42.692;23.314;2023-06-05T10:32:33;16.30;;;9.60;;
24277;SDS011;12394;42.692;23.314;2023-06-05T10:40:48;10.93;;;9.73;;
24277;SDS011;12394;42.692;23.314;2023-06-05T10:45:53;12.93;;;9.33;;
24277;SDS011;12394;42.692;23.314;2023-06-05T10:48:20;14.90;;;11.23;;
24277;SDS011;12394;42.692;23.314;2023-06-05T10:53:58;12.80;;;9.83;;
24277;SDS011;12394;42.692;23.314;2023-06-05T10:56:52;13.27;;;9.00;;
24277;SDS011;12394;42.692;23.314;2023-06-05T10:59:17;10.43;;;8.93;;
24277;SDS011;12394;42.692;23.314;2023-06-05T11:02:21;14.93;;;10.67;;
24277;SDS011;12394;42.692;23.314;2023-06-05T11:07:15;12.20;;;8.67;;
24277;SDS011;12394;42.692;23.314;2023-06-05T11:15:05;14.33;;;9.13;;
24277;SDS011;12394;42.692;23.314;2023-06-05T11:17:33;11.43;;;8.97;;
24277;SDS011;12394;42.692;23.314;2023-06-05T11:20:04;11.30;;;8.20;;
24277;SDS011;12394;42.692;23.314;2023-06-05T11:27:52;10.90;;;7.67;;
24277;SDS011;12394;42.692;23.314;2023-06-05T11:30:23;12.40;;;7.83;;
24277;SDS011;12394;42.692;23.314;2023-06-05T11:32:53;12.53;;;7.97;;
24277;SDS011;12394;42.692;23.314;2023-06-05T11:35:24;11.50;;;7.10;;
24277;SDS011;12394;42.692;23.314;2023-06-05T11:38:11;7.43;;;6.07;;
24277;SDS011;12394;42.692;23.314;2023-06-05T11:40:39;9.83;;;6.97;;
24277;SDS011;12394;42.692;23.314;2023-06-05T11:43:11;11.63;;;7.40;;
24277;SDS011;12394;42.692;23.314;2023-06-05T11:45:41;11.57;;;7.70;;
24277;SDS011;12394;42.692;23.314;2023-06-05T11:48:14;8.70;;;7.80;;
24277;SDS011;12394;42.692;23.314;2023-06-05T11:53:21;9.87;;;7.53;;
24277;SDS011;12394;42.692;23.314;2023-06-05T11:55:48;7.90;;;7.07;;
24277;SDS011;12394;42.692;23.314;2023-06-05T11:58:25;12.57;;;9.13;;
24277;SDS011;12394;42.692;23.314;2023-06-05T12:01:04;11.27;;;7.37;;
24277;SDS011;12394;42.692;23.314;2023-06-05T12:03:29;13.73;;;7.57;;
24277;SDS011;12394;42.692;23.314;2023-06-05T12:05:57;7.30;;;6.50;;
24277;SDS011;12394;42.692;23.314;2023-06-05T12:08:23;8.43;;;6.00;;
24277;SDS011;12394;42.692;23.314;2023-06-05T12:10:50;8.87;;;6.13;;
24277;SDS011;12394;42.692;23.314;2023-06-05T12:13:21;9.13;;;6.60;;
24277;SDS011;12394;42.692;23.314;2023-06-05T12:15:56;8.63;;;6.50;;
24277;SDS011;12394;42.692;23.314;2023-06-05T12:18:31;6.37;;;5.60;;
24277;SDS011;12394;42.692;23.314;2023-06-05T12:20:58;17.20;;;7.20;;
24277;SDS011;12394;42.692;23.314;2023-06-05T12:23:24;7.23;;;6.20;;
24277;SDS011;12394;42.692;23.314;2023-06-05T12:26:04;7.70;;;6.77;;
24277;SDS011;12394;42.692;23.314;2023-06-05T12:28:30;9.30;;;5.90;;
24277;SDS011;12394;42.692;23.314;2023-06-05T12:30:56;10.77;;;6.90;;
24277;SDS011;12394;42.692;23.314;2023-06-05T12:33:23;8.13;;;7.03;;
24277;SDS011;12394;42.692;23.314;2023-06-05T12:36:02;9.83;;;7.17;;
24277;SDS011;12394;42.692;23.314;2023-06-05T12:38:36;11.33;;;7.00;;
24277;SDS011;12394;42.692;23.314;2023-06-05T12:41:02;9.40;;;6.67;;
24277;SDS011;12394;42.692;23.314;2023-06-05T12:43:28;9.30;;;7.30;;
24277;SDS011;12394;42.692;23.314;2023-06-05T12:45:53;8.77;;;6.53;;
24277;SDS011;12394;42.692;23.314;2023-06-05T12:48:19;9.50;;;6.17;;
24277;SDS011;12394;42.692;23.314;2023-06-05T12:50:46;7.27;;;6.47;;
24277;SDS011;12394;42.692;23.314;2023-06-05T12:53:11;9.33;;;6.67;;
24277;SDS011;12394;42.692;23.314;2023-06-05T12:55:36;11.47;;;6.37;;
24277;SDS011;12394;42.692;23.314;2023-06-05T12:58:22;17.40;;;9.87;;
24277;SDS011;12394;42.692;23.314;2023-06-05T13:01:09;8.27;;;5.93;;
24277;SDS011;12394;42.692;23.314;2023-06-05T13:03:36;8.30;;;5.70;;
24277;SDS011;12394;42.692;23.314;2023-06-05T13:06:02;7.87;;;5.60;;
24277;SDS011;12394;42.692;23.314;2023-06-05T13:08:29;10.83;;;5.77;;
24277;SDS011;12394;42.692;23.314;2023-06-05T13:10:55;12.70;;;6.40;;
24277;SDS011;12394;42.692;23.314;2023-06-05T13:13:20;6.10;;;5.40;;
24277;SDS011;12394;42.692;23.314;2023-06-05T13:15:46;6.23;;;5.23;;
24277;SDS011;12394;42.692;23.314;2023-06-05T13:18:12;8.97;;;5.03;;
24277;SDS011;12394;42.692;23.314;2023-06-05T13:20:37;9.47;;;5.40;;
24277;SDS011;12394;42.692;23.314;2023-06-05T13:23:03;10.77;;;6.00;;
24277;SDS011;12394;42.692;23.314;2023-06-05T13:25:30;6.67;;;5.20;;
24277;SDS011;12394;42.692;23.314;2023-06-05T13:28:16;6.23;;;5.63;;
24277;SDS011;12394;42.692;23.314;2023-06-05T13:30:42;12.17;;;6.70;;
24277;SDS011;12394;42.692;23.314;2023-06-05T13:33:13;6.93;;;5.33;;
24277;SDS011;12394;42.692;23.314;2023-06-05T13:35:39;5.77;;;5.07;;
24277;SDS011;12394;42.692;23.314;2023-06-05T13:38:06;9.37;;;5.50;;
24277;SDS011;12394;42.692;23.314;2023-06-05T13:40:34;8.67;;;5.20;;
24277;SDS011;12394;42.692;23.314;2023-06-05T13:43:00;8.27;;;5.33;;
24277;SDS011;12394;42.692;23.314;2023-06-05T13:45:25;5.93;;;5.23;;
24277;SDS011;12394;42.692;23.314;2023-06-05T13:47:52;10.97;;;6.10;;
24277;SDS011;12394;42.692;23.314;2023-06-05T13:50:20;8.93;;;5.20;;
24277;SDS011;12394;42.692;23.314;2023-06-05T13:52:45;9.77;;;5.10;;
24277;SDS011;12394;42.692;23.314;2023-06-05T13:55:13;6.87;;;6.17;;
24277;SDS011;12394;42.692;23.314;2023-06-05T13:57:40;5.80;;;5.17;;
24277;SDS011;12394;42.692;23.314;2023-06-05T14:00:06;7.80;;;5.17;;
24277;SDS011;12394;42.692;23.314;2023-06-05T14:02:36;10.37;;;6.13;;
24277;SDS011;12394;42.692;23.314;2023-06-05T14:05:02;8.03;;;5.37;;
24277;SDS011;12394;42.692;23.314;2023-06-05T14:07:32;9.30;;;5.67;;
24277;SDS011;12394;42.692;23.314;2023-06-05T14:09:58;7.07;;;5.47;;
24277;SDS011;12394;42.692;23.314;2023-06-05T14:12:24;8.37;;;6.00;;
24277;SDS011;12394;42.692;23.314;2023-06-05T14:14:49;9.67;;;5.50;;
24277;SDS011;12394;42.692;23.314;2023-06-05T14:17:16;11.50;;;6.00;;
24277;SDS011;12394;42.692;23.314;2023-06-05T14:19:42;6.40;;;5.80;;
24277;SDS011;12394;42.692;23.314;2023-06-05T14:22:09;6.13;;;5.53;;
24277;SDS011;12394;42.692;23.314;2023-06-05T14:24:38;6.70;;;5.23;;
24277;SDS011;12394;42.692;23.314;2023-06-05T14:27:05;8.77;;;4.97;;
24277;SDS011;12394;42.692;23.314;2023-06-05T14:29:32;8.20;;;5.67;;
24277;SDS011;12394;42.692;23.314;2023-06-05T14:32:01;8.50;;;5.30;;
24277;SDS011;12394;42.692;23.314;2023-06-05T14:34:28;5.70;;;5.07;;
24277;SDS011;12394;42.692;23.314;2023-06-05T14:37:14;7.43;;;5.90;;
24277;SDS011;12394;42.692;23.314;2023-06-05T14:39:42;11.17;;;5.67;;
24277;SDS011;12394;42.692;23.314;2023-06-05T14:42:16;6.40;;;5.40;;
24277;SDS011;12394;42.692;23.314;2023-06-05T14:44:42;8.43;;;5.20;;
24277;SDS011;12394;42.692;23.314;2023-06-05T14:47:09;9.70;;;5.80;;
24277;SDS011;12394;42.692;23.314;2023-06-05T14:49:35;7.80;;;6.73;;
24277;SDS011;12394;42.692;23.314;2023-06-05T14:52:01;9.37;;;6.30;;
24277;SDS011;12394;42.692;23.314;2023-06-05T14:54:47;7.03;;;5.67;;
24277;SDS011;12394;42.692;23.314;2023-06-05T14:57:13;8.73;;;6.30;;
24277;SDS011;12394;42.692;23.314;2023-06-05T14:59:39;8.60;;;5.40;;
24277;SDS011;12394;42.692;23.314;2023-06-05T15:02:05;7.83;;;5.93;;
24277;SDS011;12394;42.692;23.314;2023-06-05T15:04:31;7.33;;;6.53;;
24277;SDS011;12394;42.692;23.314;2023-06-05T15:07:04;10.93;;;6.83;;